createdAt,value
2023-06-30T00:00:38.297Z,37.39
2023-06-30T00:01:38.367Z,37.37
2023-06-30T00:02:38.476Z,37.44
2023-06-30T00:03:38.504Z,37.56
2023-06-30T00:04:38.487Z,37.60
2023-06-30T00:05:38.521Z,37.65
2023-06-30T00:06:38.548Z,37.69
2023-06-30T00:07:38.895Z,37.69
2023-06-30T00:08:38.654Z,37.71
2023-06-30T00:09:38.669Z,37.70
2023-06-30T00:10:38.732Z,37.66
2023-06-30T00:11:38.753Z,37.66
2023-06-30T00:12:38.796Z,37.58
2023-06-30T00:13:38.827Z,37.57
2023-06-30T00:14:38.853Z,37.53
2023-06-30T00:15:38.935Z,37.59
2023-06-30T00:16:38.979Z,37.64
2023-06-30T00:17:39.059Z,37.61
2023-06-30T00:18:39.041Z,37.62
2023-06-30T00:19:39.092Z,37.66
2023-06-30T00:20:39.140Z,37.61
2023-06-30T00:21:39.169Z,37.63
2023-06-30T00:22:39.184Z,37.64
2023-06-30T00:23:39.264Z,37.64
2023-06-30T00:24:39.287Z,37.64
2023-06-30T00:25:39.326Z,37.70
2023-06-30T00:26:39.390Z,37.70
2023-06-30T00:27:39.415Z,37.80
2023-06-30T00:28:39.446Z,37.83
2023-06-30T00:29:39.468Z,37.82
2023-06-30T00:30:39.540Z,37.84
2023-06-30T00:31:39.657Z,37.88
2023-06-30T00:32:39.666Z,37.84
2023-06-30T00:33:39.653Z,37.88
2023-06-30T00:34:39.703Z,37.89
2023-06-30T00:35:39.754Z,37.90
2023-06-30T00:36:39.770Z,37.92
2023-06-30T00:37:39.824Z,37.87
2023-06-30T00:38:39.955Z,37.94
2023-06-30T00:39:39.891Z,38.00
2023-06-30T00:40:39.945Z,38.01
2023-06-30T00:41:39.989Z,38.04
2023-06-30T00:42:40.033Z,38.07
2023-06-30T00:43:40.069Z,38.04
2023-06-30T00:44:40.130Z,38.09
2023-06-30T00:45:40.164Z,38.14
2023-06-30T00:46:40.237Z,38.13
2023-06-30T00:47:40.315Z,38.16
2023-06-30T00:48:40.276Z,38.10
2023-06-30T00:49:40.314Z,38.12
2023-06-30T00:50:40.385Z,38.11
2023-06-30T00:51:40.413Z,38.17
2023-06-30T00:52:40.457Z,38.14
2023-06-30T00:53:40.507Z,38.16
2023-06-30T00:54:40.552Z,38.20
2023-06-30T00:55:40.577Z,38.21
2023-06-30T00:56:40.607Z,38.20
2023-06-30T00:57:40.675Z,38.24
2023-06-30T00:58:40.707Z,38.27
2023-06-30T00:59:40.753Z,38.23
2023-06-30T01:00:40.801Z,38.27
2023-06-30T01:01:40.826Z,38.25
2023-06-30T01:02:40.949Z,38.30
2023-06-30T01:03:41.007Z,38.32
2023-06-30T01:04:41.044Z,38.37
2023-06-30T01:05:41.043Z,38.38
2023-06-30T01:06:41.044Z,38.36
2023-06-30T01:07:41.141Z,38.36
2023-06-30T01:08:41.113Z,38.32
2023-06-30T01:09:41.186Z,38.40
2023-06-30T01:10:41.224Z,38.39
2023-06-30T01:11:41.256Z,38.43
2023-06-30T01:12:41.293Z,38.43
2023-06-30T01:13:41.351Z,38.42
2023-06-30T01:14:41.398Z,38.42
2023-06-30T01:15:41.418Z,38.44
2023-06-30T01:16:41.541Z,38.46
2023-06-30T01:17:41.610Z,38.47
2023-06-30T01:18:41.546Z,38.47
2023-06-30T01:19:41.565Z,38.50
2023-06-30T01:20:41.617Z,38.49
2023-06-30T01:21:41.689Z,38.51
2023-06-30T01:22:41.702Z,38.54
2023-06-30T01:23:41.761Z,38.48
2023-06-30T01:24:41.834Z,38.48
2023-06-30T01:25:41.813Z,38.46
2023-06-30T01:26:41.865Z,38.49
2023-06-30T01:27:41.899Z,38.53
2023-06-30T01:28:41.963Z,38.52
2023-06-30T01:29:42.019Z,38.54
2023-06-30T01:30:42.083Z,38.56
2023-06-30T01:31:42.117Z,38.62
2023-06-30T01:32:42.176Z,38.57
2023-06-30T01:33:42.178Z,38.58
2023-06-30T01:34:42.234Z,38.63
2023-06-30T01:35:42.315Z,38.67
2023-06-30T01:36:42.313Z,38.68
2023-06-30T01:37:42.340Z,38.73
2023-06-30T01:38:42.400Z,38.69
2023-06-30T01:39:42.446Z,38.74
2023-06-30T01:40:42.492Z,38.75
2023-06-30T01:41:42.516Z,38.72
2023-06-30T01:42:42.550Z,38.80
2023-06-30T01:43:42.617Z,38.80
2023-06-30T01:44:42.647Z,38.85
2023-06-30T01:45:42.767Z,38.89
2023-06-30T01:46:42.870Z,38.91
2023-06-30T01:47:42.767Z,38.94
2023-06-30T01:48:42.831Z,38.93
2023-06-30T01:49:42.850Z,39.00
2023-06-30T01:50:42.875Z,38.97
2023-06-30T01:51:42.908Z,38.97
2023-06-30T01:52:42.995Z,38.97
2023-06-30T01:53:43.012Z,38.95
2023-06-30T01:54:43.059Z,38.97
2023-06-30T01:55:43.145Z,38.94
2023-06-30T01:56:43.158Z,38.96
2023-06-30T01:57:43.177Z,38.94
2023-06-30T01:58:43.242Z,38.97
2023-06-30T01:59:43.293Z,38.94
2023-06-30T02:00:43.304Z,38.99
2023-06-30T02:01:43.358Z,38.96
2023-06-30T02:02:43.472Z,38.99
2023-06-30T02:03:43.513Z,39.01
2023-06-30T02:04:43.447Z,39.05
2023-06-30T02:05:43.776Z,39.05
2023-06-30T02:06:43.550Z,39.08
2023-06-30T02:07:43.583Z,39.10
2023-06-30T02:08:43.631Z,39.05
2023-06-30T02:09:48.460Z,39.08
2023-06-30T02:10:44.687Z,39.10
2023-06-30T02:11:43.653Z,39.11
2023-06-30T02:12:43.638Z,39.14
2023-06-30T02:13:43.655Z,39.12
2023-06-30T02:14:43.616Z,39.16
2023-06-30T02:15:43.868Z,39.13
2023-06-30T02:16:43.676Z,39.12
2023-06-30T02:17:43.666Z,39.12
2023-06-30T02:18:43.604Z,39.17
2023-06-30T02:19:43.581Z,39.26
2023-06-30T02:20:43.613Z,39.26
2023-06-30T02:21:43.586Z,39.24
2023-06-30T02:22:43.587Z,39.31
2023-06-30T02:23:43.572Z,39.27
2023-06-30T02:24:43.642Z,39.21
2023-06-30T02:25:43.973Z,39.23
2023-06-30T02:26:43.734Z,39.25
2023-06-30T02:27:43.801Z,39.26
2023-06-30T02:28:43.807Z,39.28
2023-06-30T02:29:43.868Z,39.24
2023-06-30T02:30:43.916Z,39.29
2023-06-30T02:31:44.020Z,39.30
2023-06-30T02:32:44.017Z,39.32
2023-06-30T02:33:44.044Z,39.29
2023-06-30T02:34:44.104Z,39.31
2023-06-30T02:35:44.547Z,39.36
2023-06-30T02:36:44.176Z,39.44
2023-06-30T02:37:44.224Z,39.45
2023-06-30T02:38:44.273Z,39.48
2023-06-30T02:39:44.332Z,39.47
2023-06-30T02:40:44.357Z,39.46
2023-06-30T02:41:44.424Z,39.48
2023-06-30T02:42:44.464Z,39.42
2023-06-30T02:43:44.457Z,39.41
2023-06-30T02:44:44.534Z,39.44
2023-06-30T02:45:45.017Z,39.48
2023-06-30T02:46:44.633Z,39.51
2023-06-30T02:47:44.755Z,39.55
2023-06-30T02:48:44.715Z,39.62
2023-06-30T02:49:44.778Z,39.60
2023-06-30T02:50:44.799Z,39.62
2023-06-30T02:51:44.851Z,39.58
2023-06-30T02:52:44.912Z,39.52
2023-06-30T02:53:44.954Z,39.51
2023-06-30T02:54:44.988Z,39.51
2023-06-30T02:55:45.328Z,39.57
2023-06-30T02:56:45.080Z,39.56
2023-06-30T02:57:45.119Z,39.56
2023-06-30T02:58:45.169Z,39.59
2023-06-30T02:59:45.229Z,39.58
2023-06-30T03:00:45.276Z,39.62
2023-06-30T03:01:45.417Z,39.65
2023-06-30T03:02:45.394Z,39.62
2023-06-30T03:03:45.534Z,39.69
2023-06-30T03:04:45.432Z,39.69
2023-06-30T03:05:45.682Z,39.67
2023-06-30T03:06:45.563Z,39.63
2023-06-30T03:07:45.573Z,39.68
2023-06-30T03:08:45.618Z,39.72
2023-06-30T03:09:45.669Z,39.76
2023-06-30T03:10:45.708Z,39.78
2023-06-30T03:11:45.778Z,39.81
2023-06-30T03:12:45.788Z,39.80
2023-06-30T03:13:45.830Z,39.83
2023-06-30T03:14:45.923Z,39.81
2023-06-30T03:15:46.251Z,39.76
2023-06-30T03:16:46.106Z,39.73
2023-06-30T03:17:46.066Z,39.79
2023-06-30T03:18:46.101Z,39.77
2023-06-30T03:19:46.136Z,39.79
2023-06-30T03:20:46.197Z,39.82
2023-06-30T03:21:46.239Z,39.85
2023-06-30T03:22:46.281Z,39.88
2023-06-30T03:23:46.339Z,39.92
2023-06-30T03:24:46.366Z,39.88
2023-06-30T03:25:46.820Z,39.92
2023-06-30T03:26:46.467Z,39.93
2023-06-30T03:27:46.517Z,39.95
2023-06-30T03:28:46.576Z,39.94
2023-06-30T03:29:46.602Z,39.95
2023-06-30T03:30:46.712Z,39.93
2023-06-30T03:31:46.719Z,39.96
2023-06-30T03:32:46.806Z,39.99
2023-06-30T03:33:46.810Z,39.97
2023-06-30T03:34:46.892Z,40.04
2023-06-30T03:35:47.142Z,40.02
2023-06-30T03:36:46.960Z,40.03
2023-06-30T03:37:47.032Z,40.03
2023-06-30T03:38:47.068Z,40.00
2023-06-30T03:39:47.092Z,39.96
2023-06-30T03:40:47.209Z,40.00
2023-06-30T03:41:47.216Z,39.98
2023-06-30T03:42:47.252Z,40.03
2023-06-30T03:43:47.304Z,40.03
2023-06-30T03:44:47.329Z,40.05
2023-06-30T03:45:47.726Z,40.05
2023-06-30T03:46:47.484Z,40.08
2023-06-30T03:47:47.584Z,40.12
2023-06-30T03:48:47.531Z,40.13
2023-06-30T03:49:47.578Z,40.13
2023-06-30T03:50:47.606Z,40.07
2023-06-30T03:51:47.656Z,40.07
2023-06-30T03:52:47.695Z,40.07
2023-06-30T03:53:47.748Z,40.08
2023-06-30T03:54:47.797Z,40.05
2023-06-30T03:55:48.016Z,40.08
2023-06-30T03:56:47.921Z,40.12
2023-06-30T03:57:47.958Z,40.13
2023-06-30T03:58:48.043Z,40.18
2023-06-30T03:59:48.077Z,40.15
2023-06-30T04:00:48.133Z,40.17
2023-06-30T04:01:48.195Z,40.15
2023-06-30T04:02:48.264Z,40.16
2023-06-30T04:03:48.432Z,40.15
2023-06-30T04:04:48.354Z,40.16
2023-06-30T04:05:48.371Z,40.14
2023-06-30T04:06:48.411Z,40.14
2023-06-30T04:07:48.603Z,40.20
2023-06-30T04:08:48.537Z,40.17
2023-06-30T04:09:48.613Z,40.21
2023-06-30T04:10:48.660Z,40.22
2023-06-30T04:11:48.674Z,40.23
2023-06-30T04:12:48.744Z,40.25
2023-06-30T04:13:48.797Z,40.24
2023-06-30T04:14:48.834Z,40.25
2023-06-30T04:15:48.883Z,40.25
2023-06-30T04:16:48.996Z,40.24
2023-06-30T04:17:49.046Z,40.25
2023-06-30T04:18:49.024Z,40.24
2023-06-30T04:19:49.082Z,40.24
2023-06-30T04:20:49.129Z,40.25
2023-06-30T04:21:49.222Z,40.26
2023-06-30T04:22:49.230Z,40.29
2023-06-30T04:23:49.289Z,40.28
2023-06-30T04:24:49.361Z,40.31
2023-06-30T04:25:49.401Z,40.29
2023-06-30T04:26:49.434Z,40.24
2023-06-30T04:27:49.491Z,40.26
2023-06-30T04:28:49.522Z,40.27
2023-06-30T04:29:49.576Z,40.27
2023-06-30T04:30:49.646Z,40.27
2023-06-30T04:31:49.689Z,40.26
2023-06-30T04:32:49.824Z,40.24
2023-06-30T04:33:49.792Z,40.23
2023-06-30T04:34:49.846Z,40.27
2023-06-30T04:35:50.010Z,40.27
2023-06-30T04:36:49.921Z,40.31
2023-06-30T04:37:49.989Z,40.31
2023-06-30T04:38:50.104Z,40.34
2023-06-30T04:39:50.143Z,40.32
2023-06-30T04:40:50.150Z,40.35
2023-06-30T04:41:50.207Z,40.36
2023-06-30T04:42:50.240Z,40.35
2023-06-30T04:43:50.284Z,40.34
2023-06-30T04:44:50.348Z,40.35
2023-06-30T04:45:50.443Z,40.31
2023-06-30T04:46:50.433Z,40.35
2023-06-30T04:47:50.607Z,40.36
2023-06-30T04:48:50.529Z,40.36
2023-06-30T04:49:50.597Z,40.38
2023-06-30T04:50:50.632Z,40.39
2023-06-30T04:51:50.725Z,40.40
2023-06-30T04:52:50.759Z,40.38
2023-06-30T04:53:50.789Z,40.41
2023-06-30T04:54:50.884Z,40.38
2023-06-30T04:55:50.904Z,40.38
2023-06-30T04:56:50.975Z,40.36
2023-06-30T04:57:51.007Z,40.38
2023-06-30T04:58:51.056Z,40.35
2023-06-30T04:59:51.120Z,40.36
2023-06-30T05:00:58.670Z,40.37
2023-06-30T05:01:51.304Z,40.39
2023-06-30T05:02:51.258Z,40.39
2023-06-30T05:03:51.231Z,40.47
2023-06-30T05:04:51.166Z,40.48
2023-06-30T05:05:51.193Z,40.47
2023-06-30T05:06:51.136Z,40.47
2023-06-30T05:07:51.142Z,40.44
2023-06-30T05:08:51.096Z,40.48
2023-06-30T05:09:51.101Z,40.48
2023-06-30T05:10:51.087Z,40.48
2023-06-30T05:11:51.121Z,40.54
2023-06-30T05:12:51.079Z,40.53
2023-06-30T05:13:51.077Z,40.51
2023-06-30T05:14:51.048Z,40.48
2023-06-30T05:15:51.258Z,40.48
2023-06-30T05:16:51.129Z,40.49
2023-06-30T05:17:51.113Z,40.51
2023-06-30T05:18:51.110Z,40.50
2023-06-30T05:19:51.140Z,40.51
2023-06-30T05:20:51.193Z,40.52
2023-06-30T05:21:51.284Z,40.54
2023-06-30T05:22:51.308Z,40.53
2023-06-30T05:23:51.361Z,40.53
2023-06-30T05:24:51.435Z,40.51
2023-06-30T05:25:51.465Z,40.49
2023-06-30T05:26:51.543Z,40.47
2023-06-30T05:27:51.556Z,40.47
2023-06-30T05:29:00.497Z,40.53
2023-06-30T05:29:52.617Z,40.56
2023-06-30T05:30:51.600Z,40.58
2023-06-30T05:31:51.958Z,40.62
2023-06-30T05:32:52.378Z,40.64
2023-06-30T05:33:51.584Z,41.23
2023-06-30T05:34:51.559Z,42.22
2023-06-30T05:35:51.574Z,43.54
2023-06-30T05:36:52.790Z,44.15
2023-06-30T05:37:51.559Z,44.73
2023-06-30T05:38:51.564Z,45.33
2023-06-30T05:39:51.574Z,45.88
2023-06-30T05:40:51.529Z,46.74
2023-06-30T05:41:51.823Z,47.01
2023-06-30T05:42:51.508Z,47.33
2023-06-30T05:43:51.580Z,47.87
2023-06-30T05:44:51.530Z,48.27
2023-06-30T05:45:59.052Z,48.86
2023-06-30T05:46:51.901Z,48.49
2023-06-30T05:47:51.584Z,48.34
2023-06-30T05:48:51.509Z,48.42
2023-06-30T05:49:51.592Z,48.41
2023-06-30T05:50:51.505Z,48.55
2023-06-30T05:51:51.513Z,48.24
2023-06-30T05:52:51.528Z,48.59
2023-06-30T05:53:51.516Z,47.95
2023-06-30T05:54:51.504Z,47.90
2023-06-30T05:55:51.493Z,47.82
2023-06-30T05:56:51.861Z,47.60
2023-06-30T05:57:51.454Z,47.55
2023-06-30T05:58:51.470Z,47.55
2023-06-30T05:59:51.441Z,47.52
2023-06-30T06:00:51.435Z,47.53
2023-06-30T06:01:51.791Z,47.52
2023-06-30T06:02:51.568Z,47.42
2023-06-30T06:03:51.735Z,47.45
2023-06-30T06:04:51.585Z,47.32
2023-06-30T06:05:51.826Z,47.34
2023-06-30T06:06:51.869Z,47.33
2023-06-30T06:07:51.388Z,47.22
2023-06-30T06:08:51.467Z,47.18
2023-06-30T06:09:51.406Z,47.18
2023-06-30T06:10:52.339Z,47.07
2023-06-30T06:11:51.371Z,47.20
2023-06-30T06:12:51.392Z,47.19
2023-06-30T06:13:51.359Z,47.28
2023-06-30T06:14:51.355Z,47.28
2023-06-30T06:15:51.319Z,47.28
2023-06-30T06:16:51.381Z,47.43
2023-06-30T06:17:51.421Z,47.55
2023-06-30T06:18:51.446Z,47.70
2023-06-30T06:19:51.368Z,47.81
2023-06-30T06:20:51.382Z,47.95
2023-06-30T06:21:51.363Z,48.00
2023-06-30T06:22:51.859Z,48.03
2023-06-30T06:23:51.396Z,48.10
2023-06-30T06:24:51.478Z,48.11
2023-06-30T06:25:51.554Z,48.08
2023-06-30T06:26:51.391Z,48.04
2023-06-30T06:27:51.863Z,48.12
2023-06-30T06:28:51.470Z,48.15
2023-06-30T06:29:51.485Z,48.34
2023-06-30T06:30:51.579Z,48.39
2023-06-30T06:31:51.565Z,48.49
2023-06-30T06:32:51.889Z,48.48
2023-06-30T06:33:53.296Z,48.44
2023-06-30T06:34:51.614Z,48.44
2023-06-30T06:35:51.619Z,48.44
2023-06-30T06:36:51.609Z,48.45
2023-06-30T06:37:51.565Z,48.42
2023-06-30T06:38:51.592Z,48.45
2023-06-30T06:39:51.582Z,48.50
2023-06-30T06:40:51.603Z,48.55
2023-06-30T06:41:51.553Z,48.55
2023-06-30T06:42:51.838Z,48.71
2023-06-30T06:43:51.539Z,48.78
2023-06-30T06:44:51.607Z,48.82
2023-06-30T06:45:51.527Z,48.77
2023-06-30T06:46:51.510Z,48.83
2023-06-30T06:47:51.928Z,48.87
2023-06-30T06:48:51.562Z,49.31
2023-06-30T06:49:51.515Z,49.67
2023-06-30T06:50:51.528Z,49.51
2023-06-30T06:51:51.528Z,50.17
2023-06-30T06:52:51.861Z,50.22
2023-06-30T06:53:51.485Z,50.29
2023-06-30T06:54:51.469Z,50.17
2023-06-30T06:55:51.516Z,50.12
2023-06-30T06:56:51.460Z,51.02
2023-06-30T06:57:51.443Z,50.83
2023-06-30T06:58:51.488Z,50.70
2023-06-30T06:59:51.761Z,50.59
2023-06-30T07:00:51.439Z,50.73
2023-06-30T07:01:51.465Z,50.94
2023-06-30T07:02:51.489Z,49.87
2023-06-30T07:03:51.443Z,49.89
2023-06-30T07:04:51.402Z,49.36
2023-06-30T07:05:51.410Z,49.47
2023-06-30T07:06:51.396Z,49.33
2023-06-30T07:07:51.893Z,49.23
2023-06-30T07:08:51.383Z,49.31
2023-06-30T07:09:51.371Z,49.06
2023-06-30T07:10:51.462Z,49.06
2023-06-30T07:11:51.354Z,48.87
2023-06-30T07:12:51.378Z,49.22
2023-06-30T07:13:51.341Z,49.34
2023-06-30T07:14:51.345Z,49.25
2023-06-30T07:15:51.482Z,49.00
2023-06-30T07:16:51.360Z,48.78
2023-06-30T07:17:51.508Z,48.82
2023-06-30T07:18:51.306Z,48.54
2023-06-30T07:19:51.289Z,48.65
2023-06-30T07:20:51.306Z,48.30
2023-06-30T07:21:51.335Z,48.43
2023-06-30T07:22:51.284Z,48.20
2023-06-30T07:23:51.325Z,47.84
2023-06-30T07:24:51.356Z,47.76
2023-06-30T07:25:51.436Z,47.75
2023-06-30T07:26:51.481Z,47.56
2023-06-30T07:27:51.557Z,47.60
2023-06-30T07:28:51.706Z,47.49
2023-06-30T07:29:51.676Z,47.38
2023-06-30T07:30:51.710Z,47.33
2023-06-30T07:31:51.747Z,47.61
2023-06-30T07:32:51.875Z,47.31
2023-06-30T07:33:51.872Z,47.42
2023-06-30T07:34:51.924Z,47.64
2023-06-30T07:35:51.978Z,47.81
2023-06-30T07:36:52.018Z,47.80
2023-06-30T07:37:52.370Z,47.81
2023-06-30T07:38:52.181Z,47.82
2023-06-30T07:39:52.209Z,47.98
2023-06-30T07:40:56.539Z,47.96
2023-06-30T07:41:52.306Z,47.94
2023-06-30T07:42:52.257Z,47.96
2023-06-30T07:43:52.241Z,48.00
2023-06-30T07:44:52.231Z,47.89
2023-06-30T07:45:52.255Z,48.02
2023-06-30T07:46:52.237Z,47.99
2023-06-30T07:47:52.333Z,47.88
2023-06-30T07:48:52.294Z,48.09
2023-06-30T07:49:52.194Z,48.34
2023-06-30T07:51:06.884Z,48.22
2023-06-30T07:51:53.189Z,48.18
2023-06-30T07:52:52.175Z,48.12
2023-06-30T07:53:52.220Z,48.03
2023-06-30T07:54:52.141Z,48.02
2023-06-30T07:55:52.152Z,47.96
2023-06-30T07:56:52.116Z,47.72
2023-06-30T07:57:52.411Z,47.69
2023-06-30T07:58:52.152Z,47.51
2023-06-30T07:59:52.164Z,47.70
2023-06-30T08:00:52.195Z,47.81
2023-06-30T08:01:52.115Z,47.70
2023-06-30T08:02:52.308Z,47.71
2023-06-30T08:03:52.327Z,47.73
2023-06-30T08:04:52.165Z,47.92
2023-06-30T08:05:52.404Z,47.47
2023-06-30T08:06:52.101Z,47.53
2023-06-30T08:07:52.203Z,47.49
2023-06-30T08:08:52.131Z,47.35
2023-06-30T08:09:52.163Z,47.26
2023-06-30T08:10:52.184Z,47.14
2023-06-30T08:11:52.290Z,47.28
2023-06-30T08:12:52.272Z,47.24
2023-06-30T08:13:52.352Z,46.80
2023-06-30T08:14:52.328Z,46.60
2023-06-30T08:15:52.532Z,46.62
2023-06-30T08:16:52.580Z,46.62
2023-06-30T08:17:57.465Z,46.63
2023-06-30T08:18:53.539Z,46.36
2023-06-30T08:19:52.545Z,46.75
2023-06-30T08:20:52.443Z,46.35
2023-06-30T08:21:52.488Z,46.25
2023-06-30T08:22:52.935Z,46.12
2023-06-30T08:23:52.473Z,46.12
2023-06-30T08:24:53.376Z,46.16
2023-06-30T08:25:52.543Z,45.90
2023-06-30T08:26:52.574Z,45.87
2023-06-30T08:27:52.935Z,45.83
2023-06-30T08:28:52.619Z,45.64
2023-06-30T08:29:52.619Z,45.55
2023-06-30T08:30:52.675Z,45.66
2023-06-30T08:31:52.676Z,45.41
2023-06-30T08:32:52.962Z,45.62
2023-06-30T08:33:52.679Z,45.38
2023-06-30T08:34:52.692Z,45.82
2023-06-30T08:35:52.712Z,45.56
2023-06-30T08:36:52.738Z,45.68
2023-06-30T08:37:54.202Z,45.54
2023-06-30T08:38:52.740Z,45.53
2023-06-30T08:39:52.704Z,45.70
2023-06-30T08:40:52.751Z,45.69
2023-06-30T08:41:52.743Z,45.74
2023-06-30T08:42:52.692Z,45.86
2023-06-30T08:43:52.716Z,45.99
2023-06-30T08:44:52.702Z,46.15
2023-06-30T08:45:52.796Z,45.92
2023-06-30T08:46:52.877Z,46.21
2023-06-30T08:47:52.883Z,46.36
2023-06-30T08:48:52.900Z,46.00
2023-06-30T08:49:52.949Z,46.03
2023-06-30T08:50:53.023Z,46.21
2023-06-30T08:51:53.051Z,46.24
2023-06-30T08:52:53.131Z,46.11
2023-06-30T08:53:53.404Z,45.91
2023-06-30T08:54:53.253Z,46.25
2023-06-30T08:55:53.305Z,46.10
2023-06-30T08:56:53.367Z,46.08
2023-06-30T08:57:53.491Z,46.15
2023-06-30T08:58:53.492Z,46.20
2023-06-30T08:59:53.624Z,45.80
2023-06-30T09:00:53.712Z,46.23
2023-06-30T09:01:53.690Z,46.44
2023-06-30T09:02:53.755Z,46.25
2023-06-30T09:03:54.002Z,46.21
2023-06-30T09:04:53.917Z,46.76
2023-06-30T09:05:53.954Z,46.29
2023-06-30T09:06:53.993Z,46.33
2023-06-30T09:07:54.020Z,46.41
2023-06-30T09:08:54.114Z,46.25
2023-06-30T09:09:54.158Z,46.13
2023-06-30T09:10:54.238Z,45.96
2023-06-30T09:11:54.275Z,45.85
2023-06-30T09:12:54.342Z,46.42
2023-06-30T09:13:54.430Z,46.68
2023-06-30T09:14:54.507Z,46.46
2023-06-30T09:15:54.549Z,46.78
2023-06-30T09:16:54.594Z,46.89
2023-06-30T09:17:54.623Z,46.70
2023-06-30T09:18:54.961Z,46.62
2023-06-30T09:19:54.816Z,47.08
2023-06-30T09:20:54.835Z,46.84
2023-06-30T09:21:54.852Z,46.48
2023-06-30T09:22:56.782Z,46.82
2023-06-30T09:23:55.446Z,46.39
2023-06-30T09:24:55.015Z,46.46
2023-06-30T09:25:55.146Z,46.65
2023-06-30T09:26:55.133Z,46.71
2023-06-30T09:27:55.234Z,46.89
2023-06-30T09:28:55.549Z,46.84
2023-06-30T09:29:55.446Z,46.78
2023-06-30T09:30:55.429Z,46.52
2023-06-30T09:31:55.521Z,46.21
2023-06-30T09:32:55.565Z,46.16
2023-06-30T09:33:55.530Z,46.20
2023-06-30T09:34:55.602Z,46.70
2023-06-30T09:35:55.578Z,47.09
2023-06-30T09:36:55.688Z,47.03
2023-06-30T09:37:55.680Z,47.61
2023-06-30T09:38:55.627Z,47.79
2023-06-30T09:39:55.661Z,47.91
2023-06-30T09:40:55.620Z,47.75
2023-06-30T09:41:55.669Z,47.86
2023-06-30T09:42:55.740Z,47.58
2023-06-30T09:43:55.797Z,47.32
2023-06-30T09:44:55.855Z,47.74
2023-06-30T09:45:55.931Z,47.77
2023-06-30T09:46:55.993Z,47.90
2023-06-30T09:47:56.190Z,47.63
2023-06-30T09:48:56.454Z,47.53
2023-06-30T09:49:56.171Z,47.33
2023-06-30T09:50:56.187Z,47.13
2023-06-30T09:51:56.244Z,46.91
2023-06-30T09:52:56.317Z,46.98
2023-06-30T09:53:56.433Z,46.83
2023-06-30T09:54:56.441Z,46.64
2023-06-30T09:55:56.509Z,47.05
2023-06-30T09:56:56.510Z,46.71
2023-06-30T09:57:56.589Z,46.67
2023-06-30T09:58:58.001Z,46.51
2023-06-30T09:59:56.947Z,46.63
2023-06-30T10:00:56.705Z,46.42
2023-06-30T10:01:56.799Z,46.40
2023-06-30T10:02:56.824Z,46.28
2023-06-30T10:03:57.074Z,46.35
2023-06-30T10:04:56.810Z,46.49
2023-06-30T10:05:56.920Z,46.73
2023-06-30T10:06:56.953Z,46.43
2023-06-30T10:07:56.963Z,46.41
2023-06-30T10:08:57.011Z,46.21
2023-06-30T10:09:57.464Z,46.05
2023-06-30T10:10:57.175Z,46.20
2023-06-30T10:11:57.078Z,46.31
2023-06-30T10:12:57.184Z,46.12
2023-06-30T10:13:57.182Z,46.33
2023-06-30T10:14:57.241Z,46.40
2023-06-30T10:15:57.266Z,46.49
2023-06-30T10:16:57.349Z,46.34
2023-06-30T10:17:57.449Z,46.37
2023-06-30T10:18:57.419Z,46.29
2023-06-30T10:19:57.491Z,46.31
2023-06-30T10:20:57.538Z,46.42
2023-06-30T10:21:57.639Z,46.37
2023-06-30T10:22:57.676Z,46.71
2023-06-30T10:23:57.690Z,46.53
2023-06-30T10:24:57.845Z,46.45
2023-06-30T10:25:58.058Z,46.39
2023-06-30T10:26:57.897Z,46.30
2023-06-30T10:27:57.942Z,46.22
2023-06-30T10:28:58.005Z,46.08
2023-06-30T10:29:58.102Z,46.26
2023-06-30T10:30:58.143Z,46.55
2023-06-30T10:31:58.284Z,46.49
2023-06-30T10:32:58.339Z,46.58
2023-06-30T10:33:58.343Z,46.38
2023-06-30T10:34:58.540Z,46.38
2023-06-30T10:35:58.466Z,46.18
2023-06-30T10:36:58.511Z,46.20
2023-06-30T10:37:58.567Z,46.17
2023-06-30T10:38:58.585Z,46.12
2023-06-30T10:39:58.950Z,46.09
2023-06-30T10:40:58.721Z,46.06
2023-06-30T10:41:58.757Z,46.03
2023-06-30T10:42:58.765Z,45.96
2023-06-30T10:43:58.839Z,45.94
2023-06-30T10:44:58.868Z,45.87
2023-06-30T10:45:58.891Z,45.91
2023-06-30T10:46:59.072Z,45.79
2023-06-30T10:47:59.026Z,45.79
2023-06-30T10:48:58.994Z,45.79
2023-06-30T10:49:59.070Z,45.68
2023-06-30T10:50:59.106Z,45.67
2023-06-30T10:51:59.188Z,45.79
2023-06-30T10:52:59.201Z,45.74
2023-06-30T10:53:59.239Z,45.66
2023-06-30T10:54:59.494Z,45.68
2023-06-30T10:55:59.329Z,45.67
2023-06-30T10:56:59.347Z,45.52
2023-06-30T10:57:59.404Z,45.51
2023-06-30T10:58:59.441Z,45.52
2023-06-30T10:59:59.958Z,45.47
2023-06-30T11:00:59.500Z,45.44
2023-06-30T11:01:59.529Z,45.47
2023-06-30T11:02:59.743Z,45.40
2023-06-30T11:03:59.963Z,45.37
2023-06-30T11:05:00.015Z,45.34
2023-06-30T11:05:59.678Z,45.32
2023-06-30T11:06:59.765Z,45.25
2023-06-30T11:07:59.754Z,45.27
2023-06-30T11:08:59.776Z,45.22
2023-06-30T11:09:59.857Z,45.20
2023-06-30T11:10:59.865Z,45.23
2023-06-30T11:11:59.888Z,45.19
2023-06-30T11:12:59.988Z,45.19
2023-06-30T11:13:59.997Z,45.17
2023-06-30T11:15:00.105Z,45.16
2023-06-30T11:16:00.124Z,45.10
2023-06-30T11:17:00.134Z,45.06
2023-06-30T11:18:00.275Z,45.08
2023-06-30T11:19:00.403Z,45.02
2023-06-30T11:20:00.460Z,44.97
2023-06-30T11:21:00.351Z,44.93
2023-06-30T11:22:00.336Z,44.95
2023-06-30T11:23:00.357Z,44.92
2023-06-30T11:24:00.436Z,44.92
2023-06-30T11:25:00.440Z,44.87
2023-06-30T11:26:00.483Z,44.81
2023-06-30T11:27:00.504Z,44.76
2023-06-30T11:28:00.568Z,44.72
2023-06-30T11:29:00.592Z,44.66
2023-06-30T11:30:00.695Z,44.64
2023-06-30T11:31:03.743Z,44.62
2023-06-30T11:32:00.660Z,44.60
2023-06-30T11:33:00.761Z,44.58
2023-06-30T11:34:00.641Z,44.58
2023-06-30T11:35:00.643Z,44.53
2023-06-30T11:36:00.701Z,44.50
2023-06-30T11:37:00.628Z,44.43
2023-06-30T11:38:00.643Z,44.43
2023-06-30T11:39:00.599Z,44.38
2023-06-30T11:40:00.661Z,44.41
2023-06-30T11:41:00.719Z,44.38
2023-06-30T11:42:00.595Z,44.35
2023-06-30T11:43:00.586Z,44.33
2023-06-30T11:44:00.596Z,44.30
2023-06-30T11:45:00.582Z,44.33
2023-06-30T11:46:02.634Z,44.24
2023-06-30T11:47:00.773Z,44.20
2023-06-30T11:48:00.768Z,44.18
2023-06-30T11:49:00.823Z,44.11
2023-06-30T11:50:00.824Z,44.12
2023-06-30T11:51:00.868Z,44.15
2023-06-30T11:52:02.251Z,44.13
2023-06-30T11:53:00.905Z,44.15
2023-06-30T11:54:00.897Z,44.07
2023-06-30T11:55:00.957Z,44.05
2023-06-30T11:56:00.961Z,44.11
2023-06-30T11:57:00.973Z,44.10
2023-06-30T11:58:02.168Z,44.03
2023-06-30T11:59:01.008Z,44.05
2023-06-30T12:00:01.104Z,44.02
2023-06-30T12:01:01.071Z,43.99
2023-06-30T12:02:01.090Z,43.98
2023-06-30T12:03:01.216Z,43.96
2023-06-30T12:04:01.282Z,43.95
2023-06-30T12:05:01.231Z,43.92
2023-06-30T12:06:01.251Z,43.92
2023-06-30T12:07:01.247Z,43.90
2023-06-30T12:08:01.249Z,43.92
2023-06-30T12:09:01.289Z,43.88
2023-06-30T12:10:01.311Z,43.92
2023-06-30T12:11:01.327Z,43.87
2023-06-30T12:12:01.326Z,43.84
2023-06-30T12:13:01.450Z,43.83
2023-06-30T12:14:01.483Z,43.82
2023-06-30T12:15:01.442Z,43.76
2023-06-30T12:16:01.487Z,43.70
2023-06-30T12:17:01.448Z,43.73
2023-06-30T12:18:01.561Z,43.63
2023-06-30T12:19:01.477Z,43.60
2023-06-30T12:20:01.551Z,43.58
2023-06-30T12:21:01.547Z,43.55
2023-06-30T12:22:01.574Z,43.61
2023-06-30T12:23:01.602Z,43.63
2023-06-30T12:24:01.593Z,43.62
2023-06-30T12:25:01.648Z,43.61
2023-06-30T12:26:01.627Z,43.63
2023-06-30T12:27:01.681Z,43.58
2023-06-30T12:28:01.692Z,43.54
2023-06-30T12:29:01.747Z,43.53
2023-06-30T12:30:02.041Z,43.52
2023-06-30T12:31:01.758Z,43.49
2023-06-30T12:32:01.928Z,43.42
2023-06-30T12:33:02.004Z,43.46
2023-06-30T12:34:01.861Z,43.47
2023-06-30T12:35:04.149Z,43.44
2023-06-30T12:36:01.823Z,43.43
2023-06-30T12:37:01.836Z,43.41
2023-06-30T12:38:01.800Z,43.42
2023-06-30T12:39:01.848Z,43.40
2023-06-30T12:40:01.791Z,43.38
2023-06-30T12:41:01.782Z,43.37
2023-06-30T12:42:01.834Z,43.30
2023-06-30T12:43:01.760Z,43.33
2023-06-30T12:44:01.760Z,43.30
2023-06-30T12:45:01.772Z,43.27
2023-06-30T12:46:01.790Z,43.20
2023-06-30T12:47:01.750Z,43.20
2023-06-30T12:48:01.837Z,43.22
2023-06-30T12:49:01.748Z,43.19
2023-06-30T12:50:01.746Z,43.19
2023-06-30T12:51:01.752Z,43.17
2023-06-30T12:52:03.773Z,43.15
2023-06-30T12:53:01.806Z,43.13